createdAt,value
2022-08-28T00:00:31.761Z,89.01
2022-08-28T00:03:17.902Z,88.60
2022-08-28T00:06:17.040Z,87.86
2022-08-28T00:09:12.810Z,85.72
2022-08-28T00:12:26.684Z,85.06
2022-08-28T00:15:05.598Z,85.02
2022-08-28T00:17:55.038Z,84.97
2022-08-28T00:20:45.990Z,84.06
2022-08-28T00:24:01.337Z,84.23
2022-08-28T00:26:57.280Z,83.93
2022-08-28T00:29:38.993Z,83.75
2022-08-28T00:32:16.049Z,83.89
2022-08-28T00:38:13.895Z,82.61
2022-08-28T00:41:07.495Z,82.52
2022-08-28T00:58:28.995Z,82.21
2022-08-28T01:01:43.459Z,81.55
2022-08-28T01:04:38.050Z,81.16
2022-08-28T01:07:28.051Z,81.07
2022-08-28T01:13:30.878Z,79.46
2022-08-28T01:16:23.499Z,78.73
2022-08-28T01:25:44.623Z,75.58
2022-08-28T01:28:26.497Z,75.58
2022-08-28T01:31:13.220Z,75.44
2022-08-28T01:37:16.906Z,75.50
2022-08-28T01:39:52.822Z,75.97
2022-08-28T01:42:43.296Z,74.41
2022-08-28T01:45:43.629Z,73.59
2022-08-28T02:02:20.188Z,71.31
2022-08-28T02:11:28.644Z,71.63
2022-08-28T02:15:05.422Z,69.85
2022-08-28T02:18:27.147Z,69.73
2022-08-28T02:24:26.566Z,66.41
2022-08-28T02:37:33.477Z,64.99
2022-08-28T02:40:55.122Z,66.35
2022-08-28T02:46:44.435Z,68.24
2022-08-28T02:49:23.347Z,68.44
2022-08-28T02:52:01.378Z,68.39
2022-08-28T02:54:47.345Z,68.43
2022-08-28T02:57:31.930Z,67.67
2022-08-28T03:00:10.985Z,68.13
2022-08-28T03:02:48.690Z,68.44
2022-08-28T03:05:29.044Z,67.14
2022-08-28T03:08:13.729Z,66.86
2022-08-28T03:11:03.635Z,67.27
2022-08-28T03:13:39.325Z,67.40
2022-08-28T03:16:24.463Z,67.79
2022-08-28T03:19:02.575Z,67.91
2022-08-28T03:22:30.572Z,68.57
2022-08-28T03:25:14.851Z,69.17
2022-08-28T03:31:54.829Z,69.96
2022-08-28T03:41:55.379Z,68.99
2022-08-28T03:45:10.323Z,68.04
2022-08-28T03:51:23.380Z,66.02
2022-08-28T03:55:03.739Z,65.39
2022-08-28T04:07:30.375Z,63.96
2022-08-28T04:24:11.694Z,63.36
2022-08-28T04:28:02.544Z,63.71
2022-08-28T04:30:30.788Z,63.80
2022-08-28T04:33:22.652Z,62.38
2022-08-28T04:39:18.257Z,60.40
2022-08-28T04:42:03.707Z,60.22
2022-08-28T04:48:26.127Z,60.10
2022-08-28T04:51:22.593Z,59.14
2022-08-28T04:54:14.843Z,59.12
2022-08-28T05:00:45.940Z,60.24
2022-08-28T05:03:55.969Z,59.87
2022-08-28T05:07:16.677Z,60.04
2022-08-28T05:10:13.914Z,60.68
2022-08-28T05:12:51.298Z,61.50
2022-08-28T05:19:35.599Z,59.28
2022-08-28T05:22:41.000Z,59.05
2022-08-28T05:25:32.530Z,60.23
2022-08-28T05:28:12.487Z,59.33
2022-08-28T05:31:05.627Z,59.55
2022-08-28T05:34:04.748Z,58.50
2022-08-28T05:36:51.925Z,58.71
2022-08-28T05:42:38.871Z,59.60
2022-08-28T05:45:47.786Z,59.92
2022-08-28T05:55:00.989Z,58.58
2022-08-28T05:58:44.973Z,57.72
2022-08-28T06:01:24.863Z,58.12
2022-08-28T06:04:16.282Z,57.58
2022-08-28T06:07:01.268Z,57.88
2022-08-28T06:09:57.135Z,58.09
2022-08-28T06:12:49.975Z,57.40
2022-08-28T06:15:45.500Z,58.38
2022-08-28T06:18:35.651Z,58.51
2022-08-28T06:21:35.174Z,57.99
2022-08-28T06:24:11.412Z,58.12
2022-08-28T06:27:00.932Z,58.14
2022-08-28T06:29:45.776Z,58.92
2022-08-28T06:32:20.804Z,58.70
2022-08-28T06:34:57.323Z,59.83
2022-08-28T06:37:53.131Z,60.19
2022-08-28T06:40:39.403Z,60.85
2022-08-28T06:43:31.056Z,61.46
2022-08-28T06:46:13.833Z,61.69
2022-08-28T06:48:54.682Z,61.20
2022-08-28T06:51:35.913Z,62.25
2022-08-28T06:54:23.161Z,62.08
2022-08-28T06:57:01.689Z,62.26
2022-08-28T06:59:48.110Z,61.56
2022-08-28T07:02:28.314Z,60.89
2022-08-28T07:08:03.186Z,60.84
2022-08-28T07:10:52.503Z,62.13
2022-08-28T07:13:33.780Z,61.35
2022-08-28T07:16:25.874Z,58.62
2022-08-28T07:19:13.238Z,57.99
2022-08-28T07:21:52.042Z,58.25
2022-08-28T07:24:38.266Z,58.31
2022-08-28T07:27:22.510Z,58.87
2022-08-28T07:30:21.701Z,57.55
2022-08-28T07:33:05.477Z,57.18
2022-08-28T07:35:49.962Z,58.20
2022-08-28T07:38:21.622Z,58.51
2022-08-28T07:40:59.691Z,59.03
2022-08-28T07:44:04.124Z,57.84
2022-08-28T07:46:39.985Z,57.20
2022-08-28T07:49:21.543Z,56.36
2022-08-28T07:51:56.553Z,57.25
2022-08-28T07:54:38.537Z,57.20
2022-08-28T07:57:24.168Z,57.51
2022-08-28T08:00:05.531Z,57.90
2022-08-28T08:03:03.387Z,57.77
2022-08-28T08:08:35.914Z,58.27
2022-08-28T08:11:16.648Z,57.92
2022-08-28T08:14:10.535Z,58.38
2022-08-28T08:16:56.659Z,59.79
2022-08-28T08:19:59.018Z,60.19
2022-08-28T08:25:28.364Z,61.76
2022-08-28T08:28:08.011Z,62.42
2022-08-28T08:30:49.565Z,63.00
2022-08-28T08:33:31.296Z,63.75
2022-08-28T08:36:09.255Z,64.55
2022-08-28T08:38:46.627Z,65.15
2022-08-28T08:41:28.890Z,65.02
2022-08-28T08:44:22.840Z,65.64
2022-08-28T08:47:18.065Z,66.19
2022-08-28T08:50:10.631Z,66.15
2022-08-28T08:56:15.812Z,66.79
2022-08-28T08:58:56.920Z,66.75
2022-08-28T09:01:49.047Z,67.04
2022-08-28T09:05:04.788Z,67.78
2022-08-28T09:08:03.624Z,68.18
2022-08-28T09:10:52.155Z,68.41
2022-08-28T09:13:53.136Z,69.21
2022-08-28T09:16:40.040Z,69.67
2022-08-28T09:19:20.222Z,70.21
2022-08-28T09:21:58.579Z,70.25
2022-08-28T09:27:55.073Z,70.74
2022-08-28T09:34:02.949Z,71.83
2022-08-28T09:37:00.276Z,72.16
2022-08-28T09:39:55.849Z,72.12
2022-08-28T09:42:58.288Z,72.44
2022-08-28T09:45:49.434Z,72.77
2022-08-28T09:48:49.234Z,72.66
2022-08-28T09:51:40.085Z,72.91
2022-08-28T09:54:38.015Z,72.83
2022-08-28T09:57:18.904Z,72.97
2022-08-28T10:00:09.963Z,72.96
2022-08-28T10:02:53.017Z,72.93
2022-08-28T10:05:51.404Z,73.06
2022-08-28T10:08:50.010Z,73.34
2022-08-28T10:11:38.199Z,73.16
2022-08-28T10:15:17.385Z,73.69
2022-08-28T10:18:10.311Z,73.71
2022-08-28T10:21:08.897Z,73.97
2022-08-28T10:24:07.485Z,74.64
2022-08-28T10:27:07.504Z,74.90
2022-08-28T10:29:56.200Z,75.09
2022-08-28T10:33:12.741Z,75.46
2022-08-28T10:36:34.167Z,76.31
2022-08-28T10:39:24.017Z,76.44
2022-08-28T10:42:03.762Z,76.73
2022-08-28T10:45:06.673Z,76.70
2022-08-28T10:50:57.272Z,77.64
2022-08-28T10:53:37.669Z,77.87
2022-08-28T10:56:21.753Z,78.26
2022-08-28T10:59:08.160Z,78.91
2022-08-28T11:02:13.319Z,79.33
2022-08-28T11:04:59.902Z,79.95
2022-08-28T11:07:52.494Z,80.12
2022-08-28T11:11:06.563Z,80.65
2022-08-28T11:14:16.881Z,81.45
2022-08-28T11:17:02.178Z,81.74
2022-08-28T11:20:21.611Z,82.14
2022-08-28T11:23:17.560Z,82.59
2022-08-28T11:26:02.326Z,83.01
2022-08-28T11:29:05.311Z,83.72
2022-08-28T11:31:47.722Z,84.49
2022-08-28T11:35:21.966Z,84.97
2022-08-28T11:38:04.918Z,85.56
2022-08-28T11:41:23.346Z,85.86
2022-08-28T11:44:16.782Z,86.50
2022-08-28T11:47:07.442Z,86.79
2022-08-28T11:49:56.946Z,87.31
2022-08-28T11:53:06.533Z,87.69
2022-08-28T11:56:32.019Z,88.29
2022-08-28T11:59:35.254Z,88.33
2022-08-28T12:02:47.213Z,88.56
2022-08-28T12:05:50.670Z,88.36
2022-08-28T12:09:24.647Z,88.36
2022-08-28T12:12:16.383Z,88.08
2022-08-28T12:15:13.222Z,87.97
2022-08-28T12:18:08.251Z,88.14
2022-08-28T12:21:15.173Z,87.92
2022-08-28T12:24:09.769Z,88.30
2022-08-28T12:27:03.184Z,88.69
2022-08-28T12:30:05.146Z,89.00
2022-08-28T12:33:00.469Z,89.03
2022-08-28T12:35:43.167Z,89.42
2022-08-28T12:38:34.152Z,89.61
2022-08-28T12:41:42.387Z,89.35
2022-08-28T12:47:47.711Z,90.22
2022-08-28T12:50:59.272Z,90.52
2022-08-28T12:53:46.975Z,90.59
2022-08-28T12:56:39.615Z,90.58
2022-08-28T12:59:45.697Z,90.45
2022-08-28T13:02:33.695Z,90.49
2022-08-28T13:05:33.685Z,90.62
2022-08-28T13:08:15.139Z,90.50
2022-08-28T13:10:54.791Z,90.39
2022-08-28T13:13:51.569Z,90.71
2022-08-28T13:19:47.555Z,90.94
2022-08-28T13:23:04.522Z,91.44
2022-08-28T13:25:59.242Z,91.34
2022-08-28T13:28:52.673Z,91.47
2022-08-28T13:31:37.083Z,91.26
2022-08-28T13:34:20.890Z,91.07
2022-08-28T13:37:07.298Z,90.96
2022-08-28T13:40:10.772Z,90.65
2022-08-28T13:43:06.267Z,90.36
2022-08-28T13:48:43.260Z,89.91
2022-08-28T13:51:21.822Z,89.77
2022-08-28T13:54:05.784Z,89.51
2022-08-28T13:56:56.781Z,89.10
2022-08-28T13:59:37.493Z,89.06
2022-08-28T14:02:37.910Z,89.21
2022-08-28T14:05:17.923Z,88.83
2022-08-28T14:08:04.204Z,88.62
2022-08-28T14:10:47.802Z,88.50
2022-08-28T14:16:46.377Z,88.41
2022-08-28T14:19:22.811Z,88.31
2022-08-28T14:22:07.176Z,88.05
2022-08-28T14:24:43.934Z,88.01
2022-08-28T14:27:27.883Z,87.84
2022-08-28T14:30:45.597Z,87.72
2022-08-28T14:33:29.927Z,87.66
2022-08-28T14:36:42.876Z,87.59
2022-08-28T14:39:29.272Z,87.38
2022-08-28T14:42:07.377Z,87.48
2022-08-28T14:44:52.431Z,87.43
2022-08-28T14:47:38.290Z,87.55
2022-08-28T14:50:27.070Z,87.87
2022-08-28T14:53:13.847Z,88.16
2022-08-28T14:55:51.522Z,88.62
2022-08-28T14:58:40.328Z,89.16
2022-08-28T15:01:36.250Z,89.81
2022-08-28T15:04:34.636Z,90.17
2022-08-28T15:07:16.722Z,90.21
2022-08-28T15:10:04.326Z,90.27
2022-08-28T15:12:47.617Z,90.20
2022-08-28T15:15:32.529Z,90.01
2022-08-28T15:18:24.157Z,89.87
2022-08-28T15:21:06.051Z,90.19
2022-08-28T15:23:55.301Z,90.09
2022-08-28T15:26:44.793Z,90.05
2022-08-28T15:29:22.170Z,90.42
2022-08-28T15:32:09.671Z,90.78
2022-08-28T15:34:49.508Z,91.03
2022-08-28T15:37:31.730Z,91.49
2022-08-28T15:40:29.716Z,91.78
2022-08-28T15:43:19.379Z,91.54
2022-08-28T15:46:07.744Z,91.28
2022-08-28T15:48:50.875Z,91.50
2022-08-28T15:51:53.617Z,91.76
2022-08-28T15:55:19.295Z,92.33
2022-08-28T15:58:14.522Z,92.14
2022-08-28T16:00:56.284Z,91.86
2022-08-28T16:03:34.311Z,90.72
2022-08-28T16:06:23.590Z,90.22
2022-08-28T16:09:10.715Z,90.92
2022-08-28T16:15:51.516Z,91.39
2022-08-28T16:18:29.792Z,91.77
2022-08-28T16:21:13.083Z,92.12
2022-08-28T16:23:54.267Z,92.29
2022-08-28T16:26:38.080Z,92.41
2022-08-28T16:29:19.301Z,92.38
2022-08-28T16:32:15.855Z,92.36
2022-08-28T16:35:00.398Z,92.20
2022-08-28T16:37:39.877Z,92.23
2022-08-28T16:40:34.575Z,92.12
2022-08-28T16:43:21.673Z,92.09
2022-08-28T16:46:04.540Z,92.02
2022-08-28T16:48:59.443Z,92.24
2022-08-28T16:51:33.098Z,92.42
2022-08-28T16:54:13.013Z,92.57
2022-08-28T16:57:02.823Z,92.60
2022-08-28T16:59:43.164Z,92.83
2022-08-28T17:02:37.199Z,92.69
2022-08-28T17:05:24.069Z,92.27
2022-08-28T17:09:00.150Z,92.57
2022-08-28T17:11:45.783Z,92.49
2022-08-28T17:14:42.589Z,92.77
2022-08-28T17:17:27.654Z,93.05
2022-08-28T17:20:12.738Z,92.77
2022-08-28T17:22:53.432Z,93.55
2022-08-28T17:25:32.851Z,93.37
2022-08-28T17:28:11.871Z,93.54
2022-08-28T17:31:01.966Z,93.69
2022-08-28T17:33:42.942Z,93.45
2022-08-28T17:36:33.305Z,93.79
2022-08-28T17:39:27.294Z,94.17
2022-08-28T17:42:07.550Z,94.21
2022-08-28T17:44:53.211Z,94.16
2022-08-28T17:47:41.966Z,94.00
2022-08-28T17:50:23.932Z,93.79
2022-08-28T17:53:04.151Z,93.82
2022-08-28T17:55:51.850Z,93.30
2022-08-28T17:58:38.452Z,92.56
2022-08-28T18:01:20.726Z,92.49
2022-08-28T18:04:01.920Z,92.59
2022-08-28T18:07:03.454Z,93.07
2022-08-28T18:09:42.533Z,93.43
2022-08-28T18:12:22.487Z,93.91
2022-08-28T18:14:58.737Z,94.21
2022-08-28T18:17:37.616Z,94.33
2022-08-28T18:20:30.178Z,94.07
2022-08-28T18:23:07.497Z,94.21
2022-08-28T18:25:55.661Z,94.25
2022-08-28T18:28:46.304Z,93.79
2022-08-28T18:31:33.237Z,93.70
2022-08-28T18:34:23.992Z,93.52
2022-08-28T18:37:02.082Z,94.11
2022-08-28T18:39:44.680Z,94.26
2022-08-28T18:42:34.365Z,94.58
2022-08-28T18:45:36.147Z,94.62
2022-08-28T18:48:31.300Z,94.83
2022-08-28T18:51:13.608Z,95.06
2022-08-28T18:54:03.807Z,94.71
2022-08-28T18:56:38.346Z,94.94
2022-08-28T18:59:15.895Z,94.79
2022-08-28T19:02:08.948Z,94.40
2022-08-28T19:04:46.329Z,94.39
2022-08-28T19:07:23.059Z,94.76
2022-08-28T19:13:12.193Z,95.35
2022-08-28T19:16:00.330Z,94.96
2022-08-28T19:19:07.225Z,94.53
2022-08-28T19:21:57.340Z,94.41
2022-08-28T19:24:55.167Z,94.85
2022-08-28T19:27:31.868Z,94.37
2022-08-28T19:30:19.658Z,94.03
2022-08-28T19:33:03.696Z,93.64
2022-08-28T19:35:57.596Z,93.96
2022-08-28T19:41:28.782Z,94.23
2022-08-28T19:44:09.009Z,94.44
2022-08-28T19:46:48.925Z,94.13
2022-08-28T19:49:36.133Z,94.17
2022-08-28T19:52:21.275Z,94.18
2022-08-28T19:55:05.335Z,94.32
2022-08-28T19:57:51.711Z,94.30
2022-08-28T20:00:38.166Z,94.40
2022-08-28T20:03:26.828Z,94.56
2022-08-28T20:06:12.131Z,94.86
2022-08-28T20:08:56.654Z,95.18
2022-08-28T20:11:39.053Z,95.02
2022-08-28T20:14:17.690Z,95.10
2022-08-28T20:16:52.788Z,94.76
2022-08-28T20:19:31.437Z,94.44
2022-08-28T20:22:12.068Z,93.92
2022-08-28T20:26:07.390Z,93.69
2022-08-28T20:28:47.575Z,93.94
2022-08-28T20:31:25.714Z,93.72
2022-08-28T20:34:05.001Z,93.73
2022-08-28T20:36:56.108Z,94.03
2022-08-28T20:39:38.892Z,94.52
2022-08-28T20:42:41.942Z,94.80
2022-08-28T20:45:26.034Z,95.06
2022-08-28T20:48:05.332Z,95.24
2022-08-28T20:50:50.063Z,95.79
2022-08-28T20:53:57.469Z,96.25
2022-08-28T20:56:39.980Z,96.90
2022-08-28T20:59:26.301Z,97.32
2022-08-28T21:02:19.664Z,97.32
2022-08-28T21:04:57.884Z,97.55
2022-08-28T21:07:39.297Z,97.79
2022-08-28T21:10:22.519Z,98.05
2022-08-28T21:13:01.725Z,98.20
2022-08-28T21:15:49.866Z,98.85
2022-08-28T21:19:17.205Z,98.98
2022-08-28T21:22:02.718Z,99.03
2022-08-28T21:24:42.977Z,98.84
2022-08-28T21:27:37.143Z,98.35
2022-08-28T21:30:25.473Z,98.21
2022-08-28T21:33:16.925Z,98.91
2022-08-28T21:36:19.459Z,99.22
2022-08-28T21:39:16.523Z,99.07
2022-08-28T21:42:09.680Z,98.51
2022-08-28T21:44:51.632Z,98.62
2022-08-28T21:47:43.545Z,98.31
2022-08-28T21:50:46.007Z,97.96
2022-08-28T21:56:33.574Z,98.10
2022-08-28T21:59:19.086Z,97.79
2022-08-28T22:01:59.979Z,96.54
2022-08-28T22:04:37.778Z,95.98
2022-08-28T22:07:19.200Z,95.64
2022-08-28T22:09:59.167Z,95.58
2022-08-28T22:12:47.373Z,95.37
2022-08-28T22:15:39.583Z,93.82
2022-08-28T22:18:19.342Z,90.41
2022-08-28T22:21:13.315Z,86.82
2022-08-28T22:23:56.586Z,84.46
2022-08-28T22:26:39.037Z,80.98
2022-08-28T22:29:40.596Z,78.54
2022-08-28T22:32:19.165Z,76.53
2022-08-28T22:35:05.416Z,76.49
2022-08-28T22:37:53.558Z,76.00
2022-08-28T22:40:49.597Z,74.94
2022-08-28T22:43:34.504Z,74.82
2022-08-28T22:46:14.153Z,74.09
2022-08-28T22:48:53.188Z,73.36
2022-08-28T22:51:39.619Z,72.46
2022-08-28T22:57:19.815Z,70.02
2022-08-28T23:00:08.676Z,68.62
2022-08-28T23:02:49.559Z,68.36
2022-08-28T23:05:33.407Z,68.67
2022-08-28T23:08:11.081Z,68.51
2022-08-28T23:10:59.049Z,67.29
2022-08-28T23:13:46.811Z,68.49
2022-08-28T23:16:29.786Z,70.09
2022-08-28T23:19:08.802Z,70.03
2022-08-28T23:21:52.294Z,70.17
2022-08-28T23:24:29.958Z,67.13
2022-08-28T23:27:32.465Z,65.56
2022-08-28T23:30:21.445Z,64.06
2022-08-28T23:33:41.968Z,63.29
2022-08-28T23:36:36.668Z,63.61
2022-08-28T23:39:19.878Z,64.35
2022-08-28T23:41:53.805Z,62.00
2022-08-28T23:44:31.357Z,63.05
2022-08-28T23:47:40.489Z,63.45
2022-08-28T23:50:23.584Z,60.16
2022-08-28T23:53:11.392Z,58.78
2022-08-28T23:55:50.749Z,59.99
2022-08-28T23:58:31.654Z,61.78
